Time,TemperatureF,DewpointF,PressureIn,WindDirection,WindDirectionDegrees,WindSpeedMPH,WindSpeedGustMPH,Humidity,HourlyPrecipIn,Conditions,Clouds,dailyrainin,SolarRadiationWatts/m^2,SoftwareType,DateUTC
2013-03-20 00:03:00,23.0,21.0,-100.00,SW,220,4.0,9.0,92,0.00,,,0.18,0.000000,,2013-03-20 04:03:00,
2013-03-20 00:32:00,23.0,21.0,-100.00,WSW,257,3.0,8.0,93,0.00,,,0.18,0.000000,,2013-03-20 04:32:00,
2013-03-20 00:43:00,23.0,21.0,-100.00,WSW,257,3.0,8.0,93,0.00,,,0.18,0.000000,,2013-03-20 04:43:00,
2013-03-20 00:53:00,23.0,21.0,-100.00,WSW,257,3.0,8.0,93,0.00,,,0.18,0.000000,,2013-03-20 04:53:00,
2013-03-20 01:03:00,23.0,21.0,-100.00,WSW,257,3.0,8.0,93,0.00,,,0.18,0.000000,,2013-03-20 05:03:00,
2013-03-20 01:33:00,23.0,21.0,-100.00,WNW,285,2.0,5.0,93,0.00,,,0.18,0.000000,,2013-03-20 05:33:00,
2013-03-20 01:43:00,23.0,21.0,-100.00,WNW,285,2.0,5.0,93,0.00,,,0.18,0.000000,,2013-03-20 05:43:00,
2013-03-20 01:53:00,23.0,21.0,-100.00,WNW,285,2.0,5.0,93,0.00,,,0.18,0.000000,,2013-03-20 05:53:00,
2013-03-20 02:03:00,23.0,21.0,-100.00,WNW,285,2.0,5.0,93,0.00,,,0.18,0.000000,,2013-03-20 06:03:00,
2013-03-20 02:32:00,23.0,20.0,-100.00,NW,321,5.0,10.0,89,0.00,,,0.18,0.000000,,2013-03-20 06:32:00,
2013-03-20 02:43:00,23.0,20.0,-100.00,NW,321,5.0,10.0,89,0.00,,,0.18,0.000000,,2013-03-20 06:43:00,
2013-03-20 02:53:00,23.0,20.0,-100.00,NW,321,5.0,10.0,89,0.00,,,0.18,0.000000,,2013-03-20 06:53:00,
2013-03-20 03:02:00,23.0,20.0,-100.00,NW,321,5.0,10.0,89,0.00,,,0.18,0.000000,,2013-03-20 07:02:00,
2013-03-20 03:32:00,22.0,19.0,-100.00,NW,320,3.0,10.0,88,0.00,,,0.18,0.000000,,2013-03-20 07:32:00,
2013-03-20 03:42:00,22.0,19.0,-100.00,NW,320,3.0,10.0,88,0.00,,,0.18,0.000000,,2013-03-20 07:42:00,
2013-03-20 03:52:00,22.0,19.0,-100.00,NW,320,3.0,10.0,88,0.00,,,0.18,0.000000,,2013-03-20 07:52:00,
2013-03-20 04:02:00,22.0,19.0,-100.00,NW,320,3.0,10.0,88,0.00,,,0.18,0.000000,,2013-03-20 08:02:00,
2013-03-20 04:32:00,22.0,20.0,-100.00,West,265,0.0,7.0,90,0.00,,,0.18,0.000000,,2013-03-20 08:32:00,
2013-03-20 04:42:00,22.0,20.0,-100.00,West,265,0.0,7.0,90,0.00,,,0.18,0.000000,,2013-03-20 08:42:00,
2013-03-20 04:52:00,22.0,20.0,-100.00,West,265,0.0,7.0,90,0.00,,,0.18,0.000000,,2013-03-20 08:52:00,
2013-03-20 05:02:00,22.0,20.0,-100.00,West,265,0.0,7.0,90,0.00,,,0.18,0.000000,,2013-03-20 09:02:00,
2013-03-20 05:33:00,22.0,20.0,-100.00,SSW,208,2.0,4.0,90,0.00,,,0.18,0.000000,,2013-03-20 09:33:00,
2013-03-20 05:43:00,22.0,20.0,-100.00,SSW,208,2.0,4.0,90,0.00,,,0.18,0.000000,,2013-03-20 09:43:00,
2013-03-20 05:53:00,22.0,20.0,-100.00,SSW,208,2.0,4.0,90,0.00,,,0.18,0.000000,,2013-03-20 09:53:00,
2013-03-20 06:03:00,22.0,20.0,-100.00,SSW,208,2.0,4.0,90,0.00,,,0.18,0.000000,,2013-03-20 10:03:00,
2013-03-20 06:33:00,22.0,19.0,-100.00,SW,218,3.0,4.0,88,0.00,,,0.18,0.000000,,2013-03-20 10:33:00,
2013-03-20 06:43:00,22.0,19.0,-100.00,SW,218,3.0,4.0,88,0.00,,,0.18,0.000000,,2013-03-20 10:43:00,
2013-03-20 06:53:00,22.0,19.0,-100.00,SW,218,3.0,4.0,88,0.00,,,0.18,0.000000,,2013-03-20 10:53:00,
2013-03-20 07:03:00,22.0,19.0,-100.00,SW,218,3.0,4.0,88,0.00,,,0.18,0.000000,,2013-03-20 11:03:00,
2013-03-20 07:32:00,22.0,19.0,-100.00,SW,231,3.0,8.0,87,0.00,,,0.18,0.000000,,2013-03-20 11:32:00,
2013-03-20 07:43:00,22.0,19.0,-100.00,SW,231,3.0,8.0,87,0.00,,,0.18,0.000000,,2013-03-20 11:43:00,
2013-03-20 07:52:00,22.0,19.0,-100.00,SW,231,3.0,8.0,87,0.00,,,0.18,0.000000,,2013-03-20 11:52:00,
2013-03-20 08:02:00,22.0,19.0,-100.00,SW,231,3.0,8.0,87,0.00,,,0.18,0.000000,,2013-03-20 12:02:00,
2013-03-20 08:33:00,22.0,18.0,-100.00,South,178,3.0,5.0,86,0.00,,,-99.99,4.000000,,2013-03-20 12:33:00,
2013-03-20 08:43:00,22.0,18.0,-100.00,South,178,3.0,5.0,86,0.00,,,-99.99,4.000000,,2013-03-20 12:43:00,
2013-03-20 08:53:00,22.0,18.0,-100.00,South,178,3.0,5.0,86,0.00,,,-99.99,4.000000,,2013-03-20 12:53:00,
2013-03-20 09:03:00,22.0,18.0,-100.00,South,178,3.0,5.0,86,0.00,,,-99.99,4.000000,,2013-03-20 13:03:00,
2013-03-20 09:32:00,23.0,18.0,-100.00,SSW,203,3.0,8.0,80,0.00,,,0.17,21.000000,,2013-03-20 13:32:00,
2013-03-20 09:43:00,23.0,18.0,-100.00,SSW,203,3.0,8.0,80,0.00,,,0.17,21.000000,,2013-03-20 13:43:00,
2013-03-20 09:53:00,23.0,18.0,-100.00,SSW,203,3.0,8.0,80,0.00,,,0.17,21.000000,,2013-03-20 13:53:00,
2013-03-20 10:03:00,23.0,18.0,-100.00,SSW,203,3.0,8.0,80,0.00,,,0.17,21.000000,,2013-03-20 14:03:00,
2013-03-20 10:34:00,25.0,18.0,-100.00,SW,231,4.0,8.0,73,0.00,,,0.17,43.000000,,2013-03-20 14:34:00,
2013-03-20 10:43:00,25.0,18.0,-100.00,SW,231,4.0,8.0,73,0.00,,,0.17,43.000000,,2013-03-20 14:43:00,
2013-03-20 10:53:00,25.0,18.0,-100.00,SW,231,4.0,8.0,73,0.00,,,0.17,43.000000,,2013-03-20 14:53:00,
2013-03-20 11:03:00,25.0,18.0,-100.00,SW,231,4.0,8.0,73,0.00,,,0.17,43.000000,,2013-03-20 15:03:00,
2013-03-20 11:33:00,27.0,20.0,-100.00,WSW,238,2.0,6.0,74,0.00,,,0.15,51.000000,,2013-03-20 15:33:00,
2013-03-20 11:43:00,27.0,20.0,-100.00,WSW,238,2.0,6.0,74,0.00,,,0.15,51.000000,,2013-03-20 15:43:00,
2013-03-20 11:53:00,27.0,20.0,-100.00,WSW,238,2.0,6.0,74,0.00,,,0.15,51.000000,,2013-03-20 15:53:00,
2013-03-20 12:03:00,27.0,20.0,-100.00,WSW,238,2.0,6.0,74,0.00,,,0.15,51.000000,,2013-03-20 16:03:00,
2013-03-20 12:33:00,30.0,23.0,-100.00,WSW,254,3.0,7.0,75,0.00,,,0.10,47.000000,,2013-03-20 16:33:00,
2013-03-20 12:43:00,30.0,23.0,-100.00,WSW,254,3.0,7.0,75,0.00,,,0.10,47.000000,,2013-03-20 16:43:00,
2013-03-20 12:53:00,30.0,23.0,-100.00,WSW,254,3.0,7.0,75,0.00,,,0.10,47.000000,,2013-03-20 16:53:00,
2013-03-20 13:03:00,30.0,23.0,-100.00,WSW,254,3.0,7.0,75,0.00,,,0.10,47.000000,,2013-03-20 17:03:00,
2013-03-20 13:33:00,30.0,20.0,-100.00,WNW,299,6.0,11.0,65,0.06,,,0.13,120.000000,,2013-03-20 17:33:00,
2013-03-20 13:42:00,30.0,20.0,-100.00,WNW,299,6.0,11.0,65,0.06,,,0.13,120.000000,,2013-03-20 17:42:00,
2013-03-20 13:53:00,30.0,20.0,-100.00,WNW,299,6.0,11.0,65,0.06,,,0.13,120.000000,,2013-03-20 17:53:00,
2013-03-20 14:02:00,30.0,20.0,-100.00,WNW,299,6.0,11.0,65,0.06,,,0.13,120.000000,,2013-03-20 18:02:00,
2013-03-20 14:34:00,26.0,21.0,-100.00,NW,325,6.0,15.0,81,0.08,,,0.19,142.000000,,2013-03-20 18:34:00,
2013-03-20 14:43:00,26.0,21.0,-100.00,NW,325,6.0,15.0,81,0.08,,,0.19,142.000000,,2013-03-20 18:43:00,
2013-03-20 14:53:00,26.0,21.0,-100.00,NW,325,6.0,15.0,81,0.08,,,0.19,142.000000,,2013-03-20 18:53:00,
2013-03-20 15:02:00,26.0,21.0,-100.00,NW,325,6.0,15.0,81,0.08,,,0.19,142.000000,,2013-03-20 19:02:00,
2013-03-20 15:33:00,28.0,22.0,-100.00,WNW,289,6.0,14.0,78,0.02,,,0.18,124.000000,,2013-03-20 19:33:00,
2013-03-20 15:42:00,28.0,22.0,-100.00,WNW,289,6.0,14.0,78,0.02,,,0.18,124.000000,,2013-03-20 19:42:00,
2013-03-20 15:53:00,28.0,22.0,-100.00,WNW,289,6.0,14.0,78,0.02,,,0.18,124.000000,,2013-03-20 19:53:00,
2013-03-20 16:02:00,28.0,22.0,-100.00,WNW,289,6.0,14.0,78,0.02,,,0.18,124.000000,,2013-03-20 20:02:00,
2013-03-20 16:32:00,28.0,18.0,-100.00,NW,311,9.0,20.0,65,0.01,,,0.18,146.000000,,2013-03-20 20:32:00,
2013-03-20 16:43:00,28.0,18.0,-100.00,NW,311,9.0,20.0,65,0.01,,,0.18,146.000000,,2013-03-20 20:43:00,
2013-03-20 16:53:00,28.0,18.0,-100.00,NW,311,9.0,20.0,65,0.01,,,0.18,146.000000,,2013-03-20 20:53:00,
2013-03-20 17:02:00,28.0,18.0,-100.00,NW,311,9.0,20.0,65,0.01,,,0.18,146.000000,,2013-03-20 21:02:00,
2013-03-20 17:33:00,29.0,19.0,-100.00,NNW,327,5.0,12.0,66,0.00,,,0.17,111.000000,,2013-03-20 21:33:00,
2013-03-20 17:42:00,29.0,19.0,-100.00,NNW,327,5.0,12.0,66,0.00,,,0.17,111.000000,,2013-03-20 21:42:00,
2013-03-20 17:53:00,29.0,19.0,-100.00,NNW,327,5.0,12.0,66,0.00,,,0.17,111.000000,,2013-03-20 21:53:00,
2013-03-20 18:03:00,29.0,19.0,-100.00,NNW,327,5.0,12.0,66,0.00,,,0.17,111.000000,,2013-03-20 22:03:00,
2013-03-20 18:33:00,26.0,18.0,-100.00,NW,325,6.0,18.0,72,0.00,,,0.17,61.000000,,2013-03-20 22:33:00,
2013-03-20 18:43:00,26.0,18.0,-100.00,NW,325,6.0,18.0,72,0.00,,,0.17,61.000000,,2013-03-20 22:43:00,
2013-03-20 18:53:00,26.0,18.0,-100.00,NW,325,6.0,18.0,72,0.00,,,0.17,61.000000,,2013-03-20 22:53:00,
2013-03-20 19:03:00,26.0,18.0,-100.00,NW,325,6.0,18.0,72,0.00,,,0.17,61.000000,,2013-03-20 23:03:00,
2013-03-20 19:33:00,25.0,15.0,-100.00,NNW,327,6.0,14.0,65,0.00,,,0.17,51.000000,,2013-03-20 23:33:00,
2013-03-20 19:43:00,25.0,15.0,-100.00,NNW,327,6.0,14.0,65,0.00,,,0.17,51.000000,,2013-03-20 23:43:00,
2013-03-20 19:53:00,25.0,15.0,-100.00,NNW,327,6.0,14.0,65,0.00,,,0.17,51.000000,,2013-03-20 23:53:00,
2013-03-20 20:03:00,25.0,15.0,-100.00,NNW,327,6.0,14.0,65,0.00,,,0.17,51.000000,,2013-03-21 00:03:00,
2013-03-20 20:33:00,23.0,13.0,-100.00,NW,316,4.0,9.0,65,0.00,,,0.17,2.000000,,2013-03-21 00:33:00,
2013-03-20 20:42:00,23.0,13.0,-100.00,NW,316,4.0,9.0,65,0.00,,,0.17,2.000000,,2013-03-21 00:42:00,
2013-03-20 20:53:00,23.0,13.0,-100.00,NW,316,4.0,9.0,65,0.00,,,0.17,2.000000,,2013-03-21 00:53:00,
2013-03-20 21:02:00,23.0,13.0,-100.00,NW,316,4.0,9.0,65,0.00,,,0.17,2.000000,,2013-03-21 01:02:00,
2013-03-20 21:33:00,20.0,12.0,-100.00,NE,56,0.0,13.0,71,0.00,,,0.17,0.000000,,2013-03-21 01:33:00,
2013-03-20 21:42:00,20.0,12.0,-100.00,NE,56,0.0,13.0,71,0.00,,,0.17,0.000000,,2013-03-21 01:42:00,
2013-03-20 21:53:00,20.0,12.0,-100.00,NE,56,0.0,13.0,71,0.00,,,0.17,0.000000,,2013-03-21 01:53:00,
2013-03-20 22:03:00,20.0,12.0,-100.00,NE,56,0.0,13.0,71,0.00,,,0.17,0.000000,,2013-03-21 02:03:00,
2013-03-20 22:33:00,18.0,11.0,-100.00,East,99,1.0,3.0,75,0.00,,,0.17,0.000000,,2013-03-21 02:33:00,
2013-03-20 22:42:00,18.0,11.0,-100.00,East,99,1.0,3.0,75,0.00,,,0.17,0.000000,,2013-03-21 02:42:00,
2013-03-20 22:52:00,18.0,11.0,-100.00,East,99,1.0,3.0,75,0.00,,,0.17,0.000000,,2013-03-21 02:52:00,
2013-03-20 23:02:00,18.0,11.0,-100.00,East,99,1.0,3.0,75,0.00,,,0.17,0.000000,,2013-03-21 03:02:00,
2013-03-20 23:33:00,14.0,10.0,-100.00,South,181,0.0,0.0,84,0.00,,,0.17,0.000000,,2013-03-21 03:33:00,
2013-03-20 23:43:00,14.0,10.0,-100.00,South,181,0.0,0.0,84,0.00,,,0.17,0.000000,,2013-03-21 03:43:00,
2013-03-20 23:53:00,14.0,10.0,-100.00,South,181,0.0,0.0,84,0.00,,,0.17,0.000000,,2013-03-21 03:53:00,